createdAt,value
2022-12-01T00:00:39.627Z,21.25
2022-12-01T00:01:41.305Z,21.35
2022-12-01T00:02:42.995Z,22.65
2022-12-01T00:03:44.625Z,23.95
2022-12-01T00:04:48.226Z,22.80
2022-12-01T00:06:03.144Z,22.50
2022-12-01T00:07:04.733Z,19.67
2022-12-01T00:08:06.449Z,22.23
2022-12-01T00:09:27.623Z,21.48
2022-12-01T00:10:29.254Z,22.73
2022-12-01T00:11:31.037Z,23.23
2022-12-01T00:12:32.604Z,22.10
2022-12-01T00:13:34.525Z,21.27
2022-12-01T00:14:36.145Z,22.73
2022-12-01T00:15:37.751Z,20.83
2022-12-01T00:16:41.246Z,23.70
2022-12-01T00:17:45.419Z,25.52
2022-12-01T00:18:49.840Z,22.65
2022-12-01T00:19:51.446Z,24.33
2022-12-01T00:20:56.150Z,23.30
2022-12-01T00:21:57.748Z,22.75
2022-12-01T00:22:59.352Z,23.42
2022-12-01T00:24:01.021Z,26.15
2022-12-01T00:25:02.587Z,25.50
2022-12-01T00:26:06.950Z,30.48
2022-12-01T00:27:08.495Z,24.50
2022-12-01T00:28:10.083Z,22.83
2022-12-01T00:29:11.660Z,21.23
2022-12-01T00:30:13.573Z,26.88
2022-12-01T00:31:15.147Z,21.73
2022-12-01T00:32:16.909Z,24.63
2022-12-01T00:33:18.602Z,23.65
2022-12-01T00:34:24.633Z,25.60
2022-12-01T00:35:26.309Z,21.35
2022-12-01T00:36:28.069Z,26.73
2022-12-01T00:37:30.973Z,26.17
2022-12-01T00:38:32.741Z,22.90
2022-12-01T00:39:34.417Z,22.80
2022-12-01T00:40:36.202Z,22.02
2022-12-01T00:41:38.032Z,23.03
2022-12-01T00:42:39.696Z,22.25
2022-12-01T00:43:41.345Z,27.25
2022-12-01T00:44:43.275Z,25.73
2022-12-01T00:45:44.952Z,24.85
2022-12-01T00:46:46.660Z,26.27
2022-12-01T00:47:48.353Z,25.15
2022-12-01T00:48:50.071Z,24.35
2022-12-01T00:49:52.417Z,22.35
2022-12-01T00:50:54.452Z,23.05
2022-12-01T00:51:56.128Z,25.00
2022-12-01T00:52:57.705Z,25.92
2022-12-01T00:53:59.305Z,27.30
2022-12-01T00:55:00.855Z,23.83
2022-12-01T00:56:02.456Z,22.27
2022-12-01T00:57:03.974Z,24.00
2022-12-01T00:58:05.564Z,24.52
2022-12-01T00:59:07.104Z,23.13
2022-12-01T01:00:09.454Z,20.40
2022-12-01T01:01:11.169Z,21.92
2022-12-01T01:02:12.831Z,22.03
2022-12-01T01:03:14.417Z,21.50
2022-12-01T01:04:15.994Z,26.52
2022-12-01T01:05:17.595Z,21.40
2022-12-01T01:06:19.210Z,21.63
2022-12-01T01:07:21.731Z,21.27
2022-12-01T01:08:23.415Z,24.52
2022-12-01T01:09:26.082Z,24.55
2022-12-01T01:10:27.622Z,21.75
2022-12-01T01:11:29.179Z,23.88
2022-12-01T01:12:31.173Z,20.67
2022-12-01T01:13:32.900Z,22.77
2022-12-01T01:14:34.459Z,20.23
2022-12-01T01:15:36.134Z,25.77
2022-12-01T01:16:37.779Z,21.17
2022-12-01T01:17:39.485Z,21.95
2022-12-01T01:18:41.091Z,20.38
2022-12-01T01:19:42.680Z,21.50
2022-12-01T01:20:44.264Z,21.80
2022-12-01T01:21:45.813Z,21.05
2022-12-01T01:22:47.345Z,19.57
2022-12-01T01:23:49.507Z,23.25
2022-12-01T01:24:51.126Z,20.05
2022-12-01T01:25:52.759Z,20.80
2022-12-01T01:26:55.445Z,20.65
2022-12-01T01:27:56.967Z,19.13
2022-12-01T01:29:00.991Z,19.02
2022-12-01T01:30:02.551Z,21.67
2022-12-01T01:31:10.431Z,23.77
2022-12-01T01:32:12.084Z,19.65
2022-12-01T01:33:13.672Z,21.77
2022-12-01T01:34:15.305Z,19.95
2022-12-01T01:35:16.942Z,23.20
2022-12-01T01:36:18.824Z,23.05
2022-12-01T01:37:20.412Z,20.77
2022-12-01T01:38:21.943Z,21.65
2022-12-01T01:39:23.550Z,22.15
2022-12-01T01:40:25.169Z,25.75
2022-12-01T01:41:26.750Z,21.08
2022-12-01T01:42:28.309Z,21.02
2022-12-01T01:43:43.186Z,21.53
2022-12-01T01:44:53.496Z,24.90
2022-12-01T01:45:55.240Z,20.63
2022-12-01T01:46:56.896Z,23.77
2022-12-01T01:47:58.860Z,23.00
2022-12-01T01:49:04.906Z,20.05
2022-12-01T01:50:11.480Z,21.45
2022-12-01T01:51:13.470Z,19.92
2022-12-01T01:52:15.008Z,23.92
2022-12-01T01:53:16.607Z,25.17
2022-12-01T01:54:21.019Z,24.17
2022-12-01T01:55:22.587Z,24.55
2022-12-01T01:56:24.260Z,24.52
2022-12-01T01:57:29.031Z,23.52
2022-12-01T01:58:30.912Z,24.52
2022-12-01T01:59:36.428Z,22.05
2022-12-01T02:00:39.409Z,23.13
2022-12-01T02:01:41.111Z,23.33
2022-12-01T02:02:46.150Z,22.92
2022-12-01T02:03:47.870Z,23.02
2022-12-01T02:04:51.357Z,24.67
2022-12-01T02:05:52.912Z,22.83
2022-12-01T02:06:54.983Z,23.92
2022-12-01T02:07:57.453Z,26.15
2022-12-01T02:08:59.108Z,23.00
2022-12-01T02:10:00.647Z,22.23
2022-12-01T02:11:14.592Z,21.08
2022-12-01T02:12:40.824Z,20.80
2022-12-01T02:14:20.752Z,21.33
2022-12-01T02:15:22.250Z,19.30
2022-12-01T02:16:59.372Z,20.73
2022-12-01T02:18:12.858Z,18.92
2022-12-01T02:19:41.694Z,23.25
2022-12-01T02:21:11.319Z,20.90
2022-12-01T02:22:31.264Z,28.23
2022-12-01T02:24:20.793Z,20.45
2022-12-01T02:25:42.564Z,17.25
2022-12-01T02:26:55.697Z,21.77
2022-12-01T02:28:17.734Z,19.25
2022-12-01T02:29:38.992Z,21.42
2022-12-01T02:30:49.991Z,21.57
2022-12-01T02:32:02.592Z,17.73
2022-12-01T02:33:04.083Z,23.25
2022-12-01T02:34:13.636Z,20.40
2022-12-01T02:35:30.202Z,18.17
2022-12-01T02:36:35.371Z,20.83
2022-12-01T02:38:18.220Z,20.60
2022-12-01T02:39:29.586Z,19.48
2022-12-01T02:40:39.561Z,19.23
2022-12-01T02:41:43.823Z,19.20
2022-12-01T02:43:05.566Z,20.03
2022-12-01T02:44:26.016Z,19.85
2022-12-01T02:45:52.779Z,20.50
2022-12-01T02:47:10.470Z,20.10
2022-12-01T02:48:14.693Z,23.33
2022-12-01T02:49:17.672Z,19.88
2022-12-01T02:50:19.245Z,20.52
2022-12-01T02:51:23.334Z,21.15
2022-12-01T02:52:24.971Z,17.70
2022-12-01T02:53:26.578Z,18.90
2022-12-01T02:54:29.306Z,20.23
2022-12-01T02:55:30.936Z,17.75
2022-12-01T02:56:32.572Z,19.05
2022-12-01T02:57:34.115Z,18.40
2022-12-01T02:58:35.752Z,20.80
2022-12-01T02:59:37.308Z,19.35
2022-12-01T03:00:38.992Z,21.23
2022-12-01T03:01:43.307Z,19.73
2022-12-01T03:02:55.353Z,20.13
2022-12-01T03:04:10.140Z,23.30
2022-12-01T03:05:41.455Z,21.60
2022-12-01T03:06:54.944Z,18.92
2022-12-01T03:07:59.519Z,18.63
2022-12-01T03:09:06.637Z,20.15
2022-12-01T03:10:26.123Z,19.67
2022-12-01T03:11:35.720Z,18.05
2022-12-01T03:12:43.119Z,18.63
2022-12-01T03:13:55.539Z,20.98
2022-12-01T03:15:21.646Z,18.83
2022-12-01T03:16:28.201Z,19.83
2022-12-01T03:17:34.522Z,20.83
2022-12-01T03:18:55.855Z,18.52
2022-12-01T03:20:01.117Z,20.20
2022-12-01T03:21:02.714Z,21.67
2022-12-01T03:22:09.939Z,21.83
2022-12-01T03:23:14.614Z,19.02
2022-12-01T03:24:20.672Z,19.45
2022-12-01T03:25:22.230Z,20.33
2022-12-01T03:26:24.616Z,20.77
2022-12-01T03:27:28.068Z,23.33
2022-12-01T03:28:32.323Z,21.38
2022-12-01T03:29:43.280Z,20.65
2022-12-01T03:30:45.066Z,21.42
2022-12-01T03:31:49.189Z,21.98
2022-12-01T03:32:54.937Z,20.60
2022-12-01T03:33:59.122Z,20.02
2022-12-01T03:35:31.389Z,26.08
2022-12-01T03:36:55.738Z,20.70
2022-12-01T03:38:23.570Z,18.38
2022-12-01T03:39:32.990Z,18.70
2022-12-01T03:40:36.738Z,20.58
2022-12-01T03:41:41.717Z,19.52
2022-12-01T03:42:48.084Z,19.00
2022-12-01T03:43:53.533Z,16.55
2022-12-01T03:44:56.740Z,17.15
2022-12-01T03:46:04.329Z,16.20
2022-12-01T03:47:17.499Z,18.23
2022-12-01T03:48:19.046Z,18.77
2022-12-01T03:49:20.637Z,18.77
2022-12-01T03:50:22.297Z,18.17
2022-12-01T03:51:30.302Z,16.98
2022-12-01T03:52:48.052Z,14.93
2022-12-01T03:53:54.179Z,17.13
2022-12-01T03:55:03.258Z,18.40
2022-12-01T03:56:05.379Z,16.00
2022-12-01T03:57:09.585Z,16.65
2022-12-01T03:58:23.699Z,18.95
2022-12-01T03:59:25.286Z,16.80
2022-12-01T04:00:26.973Z,14.90
2022-12-01T04:01:33.210Z,14.82
2022-12-01T04:02:35.017Z,19.35
2022-12-01T04:03:36.681Z,16.83
2022-12-01T04:04:38.326Z,17.80
2022-12-01T04:05:39.864Z,15.25
2022-12-01T04:06:43.081Z,15.80
2022-12-01T04:07:44.693Z,14.80
2022-12-01T04:08:46.296Z,14.52
2022-12-01T04:09:48.173Z,14.63
2022-12-01T04:10:50.036Z,14.00
2022-12-01T04:12:09.867Z,14.40
2022-12-01T04:13:23.019Z,14.88
2022-12-01T04:14:24.571Z,15.75
2022-12-01T04:15:26.357Z,13.90
2022-12-01T04:16:28.111Z,13.48
2022-12-01T04:17:30.134Z,13.85
2022-12-01T04:18:31.707Z,15.13
2022-12-01T04:19:33.250Z,14.48
2022-12-01T04:20:34.858Z,15.20
2022-12-01T04:21:36.377Z,18.33
2022-12-01T04:22:37.969Z,17.08
2022-12-01T04:23:58.217Z,17.70
2022-12-01T04:24:59.829Z,16.02
2022-12-01T04:26:02.074Z,17.05
2022-12-01T04:27:03.692Z,19.00
2022-12-01T04:28:05.296Z,17.88
2022-12-01T04:29:08.777Z,15.68
2022-12-01T04:30:11.114Z,17.90
2022-12-01T04:31:12.847Z,17.90
2022-12-01T04:32:14.398Z,17.17
2022-12-01T04:33:15.936Z,19.67
2022-12-01T04:34:17.508Z,17.60
2022-12-01T04:35:19.104Z,18.45
2022-12-01T04:36:20.714Z,19.02
2022-12-01T04:37:22.285Z,19.15
2022-12-01T04:38:27.488Z,17.30
2022-12-01T04:39:32.027Z,18.58
2022-12-01T04:40:33.570Z,20.17
2022-12-01T04:41:35.171Z,19.52
2022-12-01T04:42:36.825Z,18.70
2022-12-01T04:43:38.540Z,18.08
2022-12-01T04:44:40.120Z,18.98
2022-12-01T04:45:41.885Z,20.25
2022-12-01T04:46:44.894Z,19.27
2022-12-01T04:47:46.505Z,22.73
2022-12-01T04:48:48.234Z,18.83
2022-12-01T04:49:50.096Z,21.38
2022-12-01T04:50:51.808Z,21.33
2022-12-01T04:51:53.348Z,17.52
2022-12-01T04:52:54.966Z,18.77
2022-12-01T04:53:56.594Z,18.65
2022-12-01T04:54:58.130Z,18.90
2022-12-01T04:56:00.430Z,21.27
2022-12-01T04:57:02.184Z,18.85
2022-12-01T04:58:05.061Z,19.48
2022-12-01T04:59:06.688Z,19.80
2022-12-01T05:00:13.100Z,19.55
2022-12-01T05:01:15.796Z,18.65
2022-12-01T05:02:17.494Z,21.07
2022-12-01T05:03:19.136Z,19.63
2022-12-01T05:04:20.761Z,22.85
2022-12-01T05:05:22.318Z,21.27
2022-12-01T05:06:27.305Z,21.58
2022-12-01T05:07:28.925Z,22.25
2022-12-01T05:08:30.557Z,25.75
2022-12-01T05:09:32.200Z,25.73
2022-12-01T05:10:37.186Z,23.10
2022-12-01T05:11:38.733Z,20.95
2022-12-01T05:12:41.397Z,20.00
2022-12-01T05:13:44.225Z,22.65
2022-12-01T05:14:46.030Z,22.05
2022-12-01T05:15:47.656Z,19.80
2022-12-01T05:16:49.294Z,18.50
2022-12-01T05:17:50.875Z,18.02
2022-12-01T05:19:17.922Z,19.23
2022-12-01T05:20:39.677Z,18.90
2022-12-01T05:21:41.771Z,17.42
2022-12-01T05:23:05.002Z,18.58
2022-12-01T05:24:06.041Z,18.53
2022-12-01T05:25:07.893Z,19.70
2022-12-01T05:26:09.475Z,20.13
2022-12-01T05:27:11.027Z,18.33
2022-12-01T05:28:12.627Z,19.08
2022-12-01T05:29:14.251Z,22.00
2022-12-01T05:30:15.910Z,19.77
2022-12-01T05:31:17.551Z,17.02
2022-12-01T05:32:19.149Z,18.08
2022-12-01T05:33:21.704Z,21.05
2022-12-01T05:34:23.304Z,17.87
2022-12-01T05:35:24.886Z,18.35
2022-12-01T05:36:26.495Z,17.38
2022-12-01T05:37:33.253Z,19.40
2022-12-01T05:38:34.871Z,20.98
2022-12-01T05:39:36.481Z,18.40
2022-12-01T05:40:38.058Z,21.60
2022-12-01T05:41:39.610Z,19.73
2022-12-01T05:42:41.210Z,20.90
2022-12-01T05:43:42.802Z,21.77
2022-12-01T05:44:44.412Z,19.30
2022-12-01T05:45:46.270Z,21.63
2022-12-01T05:46:47.927Z,20.77
2022-12-01T05:47:49.518Z,21.17
2022-12-01T05:48:51.062Z,22.95
2022-12-01T05:49:52.614Z,22.85
2022-12-01T05:50:54.227Z,19.52
2022-12-01T05:51:55.794Z,19.05
2022-12-01T05:52:57.356Z,23.75
2022-12-01T05:53:59.987Z,23.07
2022-12-01T05:55:02.372Z,22.13
2022-12-01T05:56:04.359Z,21.73
2022-12-01T05:57:05.985Z,22.67
2022-12-01T05:58:07.730Z,18.60
2022-12-01T05:59:09.281Z,20.40
2022-12-01T06:00:11.550Z,19.55
2022-12-01T06:01:13.104Z,19.52
2022-12-01T06:02:14.769Z,21.38
2022-12-01T06:03:16.368Z,20.40
2022-12-01T06:04:19.021Z,17.73
2022-12-01T06:05:20.782Z,18.23
2022-12-01T06:06:22.333Z,19.08
2022-12-01T06:07:25.652Z,19.75
2022-12-01T06:08:27.356Z,19.38
2022-12-01T06:09:28.973Z,19.77
2022-12-01T06:10:30.512Z,20.17
2022-12-01T06:11:32.056Z,20.67
2022-12-01T06:12:33.621Z,20.25
2022-12-01T06:13:35.220Z,20.75
2022-12-01T06:14:36.771Z,19.63
2022-12-01T06:15:38.641Z,21.65
2022-12-01T06:16:40.305Z,20.40
2022-12-01T06:17:41.935Z,20.45
2022-12-01T06:18:43.479Z,19.02
2022-12-01T06:19:45.100Z,19.67
2022-12-01T06:20:46.908Z,19.60
2022-12-01T06:21:48.680Z,19.20
2022-12-01T06:22:50.251Z,20.40
2022-12-01T06:23:51.788Z,18.30
2022-12-01T06:24:53.324Z,18.75
2022-12-01T06:25:54.979Z,19.67
2022-12-01T06:26:56.575Z,16.83
2022-12-01T06:27:58.545Z,18.75
2022-12-01T06:29:00.393Z,19.63
2022-12-01T06:30:02.109Z,18.65
2022-12-01T06:31:03.961Z,20.15
2022-12-01T06:32:05.678Z,19.60
2022-12-01T06:33:07.400Z,19.27
2022-12-01T06:34:08.964Z,21.17
2022-12-01T06:35:10.498Z,22.67
2022-12-01T06:36:12.221Z,24.88
2022-12-01T06:37:15.686Z,23.17
2022-12-01T06:38:17.233Z,22.60
2022-12-01T06:39:18.833Z,23.63
2022-12-01T06:40:20.424Z,22.27
2022-12-01T06:41:22.059Z,18.35
2022-12-01T06:42:23.635Z,19.70
2022-12-01T06:43:25.263Z,22.88
2022-12-01T06:44:26.813Z,20.60
2022-12-01T06:45:30.013Z,23.02
2022-12-01T06:46:31.731Z,21.70
2022-12-01T06:47:33.522Z,20.45
2022-12-01T06:48:35.254Z,42.53
2022-12-01T06:49:37.954Z,22.27
2022-12-01T06:50:39.724Z,19.95
2022-12-01T06:51:41.310Z,23.25
2022-12-01T06:52:42.942Z,24.15
2022-12-01T06:53:44.544Z,21.05
2022-12-01T06:54:46.114Z,23.10
2022-12-01T06:55:47.979Z,18.63
2022-12-01T06:56:49.625Z,18.55
2022-12-01T06:57:51.554Z,19.55
2022-12-01T06:58:53.521Z,21.20
2022-12-01T06:59:55.487Z,23.15
2022-12-01T07:00:58.831Z,22.23
2022-12-01T07:02:00.630Z,18.00
2022-12-01T07:03:02.215Z,19.05
2022-12-01T07:04:03.879Z,18.30
2022-12-01T07:05:05.855Z,17.57
2022-12-01T07:06:07.431Z,26.92
2022-12-01T07:07:09.085Z,26.33
2022-12-01T07:08:12.420Z,40.00
2022-12-01T07:09:14.163Z,60.47
2022-12-01T07:10:15.709Z,71.55
2022-12-01T07:11:17.395Z,66.53
2022-12-01T07:12:18.939Z,57.40
2022-12-01T07:13:20.494Z,90.50
2022-12-01T07:14:26.584Z,279.83
2022-12-01T07:15:28.881Z,187.80
2022-12-01T07:16:30.558Z,135.90
2022-12-01T07:17:32.386Z,64.30
2022-12-01T07:18:34.313Z,28.23
2022-12-01T07:19:36.135Z,19.75
2022-12-01T07:20:37.724Z,26.80
2022-12-01T07:21:39.296Z,21.35
2022-12-01T07:22:43.057Z,22.25
2022-12-01T07:23:44.680Z,23.10
2022-12-01T07:24:46.234Z,23.65
2022-12-01T07:25:47.782Z,21.83
2022-12-01T07:26:49.371Z,22.05
2022-12-01T07:27:51.054Z,23.55
2022-12-01T07:28:52.613Z,29.83
2022-12-01T07:29:54.301Z,24.95
2022-12-01T07:31:06.521Z,28.00
2022-12-01T07:32:08.168Z,26.13
2022-12-01T07:33:09.723Z,21.77
2022-12-01T07:34:12.596Z,24.63
2022-12-01T07:35:14.245Z,21.20
2022-12-01T07:36:15.852Z,23.80
2022-12-01T07:37:17.468Z,21.15
2022-12-01T07:38:22.060Z,28.90
2022-12-01T07:39:24.001Z,41.92
2022-12-01T07:40:25.708Z,49.67
2022-12-01T07:41:27.286Z,46.65
2022-12-01T07:42:28.854Z,39.47
2022-12-01T07:43:31.763Z,33.47
2022-12-01T07:44:33.351Z,36.03
2022-12-01T07:45:35.085Z,30.45
2022-12-01T07:46:37.022Z,31.13
2022-12-01T07:47:38.611Z,26.92
2022-12-01T07:48:40.611Z,29.80
2022-12-01T07:49:42.178Z,31.20
2022-12-01T07:50:43.825Z,29.70
2022-12-01T07:51:45.436Z,27.35
2022-12-01T07:52:50.869Z,53.80
2022-12-01T07:53:53.012Z,80.72
2022-12-01T07:54:54.574Z,38.17
2022-12-01T07:55:56.224Z,24.05
2022-12-01T07:56:57.780Z,25.53
2022-12-01T07:58:00.801Z,26.95
2022-12-01T07:59:02.382Z,26.52
2022-12-01T08:00:04.425Z,29.67
2022-12-01T08:01:09.940Z,31.13
2022-12-01T08:02:11.663Z,35.65
2022-12-01T08:03:13.899Z,22.23
2022-12-01T08:04:15.798Z,29.40
2022-12-01T08:05:17.379Z,44.35
2022-12-01T08:06:19.143Z,28.10
2022-12-01T08:07:20.790Z,23.70
2022-12-01T08:08:22.395Z,28.80
2022-12-01T08:09:24.271Z,39.13
2022-12-01T08:10:25.855Z,49.42
2022-12-01T08:11:29.875Z,38.28
2022-12-01T08:12:31.548Z,22.58
2022-12-01T08:13:33.204Z,20.75
2022-12-01T08:14:34.759Z,23.35
2022-12-01T08:15:36.381Z,21.58
2022-12-01T08:16:38.045Z,22.90
2022-12-01T08:17:39.592Z,22.03
2022-12-01T08:18:41.527Z,23.35
2022-12-01T08:19:43.100Z,21.98
2022-12-01T08:20:44.648Z,23.85
2022-12-01T08:21:46.245Z,23.58
2022-12-01T08:22:47.779Z,25.70
2022-12-01T08:23:51.912Z,22.67
2022-12-01T08:24:53.470Z,27.73
2022-12-01T08:25:55.065Z,23.10
2022-12-01T08:26:56.639Z,26.65
2022-12-01T08:27:58.208Z,26.53
2022-12-01T08:28:59.896Z,29.50
2022-12-01T08:30:01.728Z,30.63
2022-12-01T08:31:10.575Z,39.65
2022-12-01T08:32:12.193Z,37.20
2022-12-01T08:33:13.760Z,27.85
2022-12-01T08:34:15.322Z,26.48
2022-12-01T08:35:17.018Z,32.45
2022-12-01T08:36:18.931Z,35.83
2022-12-01T08:37:20.509Z,25.57
2022-12-01T08:38:22.053Z,27.27
2022-12-01T08:39:23.630Z,22.27
2022-12-01T08:40:25.263Z,25.50
2022-12-01T08:41:28.398Z,28.35
2022-12-01T08:42:30.003Z,26.55
2022-12-01T08:43:56.436Z,29.83
2022-12-01T08:44:53.108Z,29.25
2022-12-01T08:45:58.228Z,24.33
2022-12-01T08:46:59.970Z,26.90
2022-12-01T08:48:01.690Z,27.90
2022-12-01T08:49:06.228Z,23.90
2022-12-01T08:50:08.095Z,27.85
2022-12-01T08:51:18.405Z,24.17
2022-12-01T08:52:20.295Z,25.38
2022-12-01T08:53:21.891Z,23.52
2022-12-01T08:54:23.463Z,23.63
2022-12-01T08:55:25.050Z,26.85
2022-12-01T08:56:30.211Z,24.77
2022-12-01T08:57:31.908Z,29.50
2022-12-01T08:58:33.785Z,31.17
2022-12-01T08:59:35.379Z,28.80
2022-12-01T09:00:37.037Z,28.50
2022-12-01T09:01:52.521Z,29.45
2022-12-01T09:02:54.226Z,29.92
2022-12-01T09:04:19.809Z,23.70
2022-12-01T09:05:21.457Z,30.05
2022-12-01T09:06:23.073Z,25.77
2022-12-01T09:07:26.892Z,32.25
2022-12-01T09:08:31.728Z,22.00
2022-12-01T09:09:34.858Z,21.95
2022-12-01T09:10:36.539Z,22.20
2022-12-01T09:11:38.355Z,22.13
2022-12-01T09:12:39.902Z,19.00
2022-12-01T09:13:41.917Z,23.90
2022-12-01T09:14:48.048Z,21.63
2022-12-01T09:15:59.663Z,23.55
2022-12-01T09:17:01.268Z,22.67
2022-12-01T09:18:02.914Z,25.92
2022-12-01T09:19:04.680Z,28.65
2022-12-01T09:20:07.112Z,23.33
2022-12-01T09:21:25.526Z,21.83
2022-12-01T09:22:27.069Z,25.85
2022-12-01T09:23:28.619Z,24.40
2022-12-01T09:24:30.496Z,21.20
2022-12-01T09:25:33.651Z,23.75
2022-12-01T09:26:35.237Z,21.50
2022-12-01T09:27:36.794Z,20.92
2022-12-01T09:28:38.348Z,21.27
2022-12-01T09:29:40.058Z,21.50
2022-12-01T09:30:41.744Z,21.02
2022-12-01T09:31:43.373Z,21.87
2022-12-01T09:32:44.956Z,21.38
2022-12-01T09:33:46.681Z,21.40
2022-12-01T09:34:48.523Z,23.67
2022-12-01T09:35:50.150Z,26.58
2022-12-01T09:36:51.730Z,23.75
2022-12-01T09:37:53.303Z,26.90
2022-12-01T09:38:54.870Z,26.65
2022-12-01T09:39:56.515Z,23.92
2022-12-01T09:40:59.737Z,21.73
2022-12-01T09:42:30.885Z,24.77
2022-12-01T09:43:43.575Z,23.30
2022-12-01T09:44:51.623Z,23.10
2022-12-01T09:46:04.033Z,24.40
2022-12-01T09:47:07.200Z,24.10
2022-12-01T09:48:11.137Z,21.70
2022-12-01T09:49:18.485Z,20.27
2022-12-01T09:50:25.273Z,21.25
2022-12-01T09:51:28.339Z,29.48
2022-12-01T09:52:55.565Z,32.75
2022-12-01T09:53:59.179Z,57.50
2022-12-01T09:55:01.140Z,45.15
2022-12-01T09:56:08.533Z,46.85
2022-12-01T09:57:25.393Z,38.75
2022-12-01T09:58:28.488Z,28.92
2022-12-01T09:59:35.777Z,19.33
2022-12-01T10:00:42.295Z,23.60
2022-12-01T10:01:45.048Z,24.52
2022-12-01T10:03:05.923Z,22.40
2022-12-01T10:04:20.253Z,25.02
2022-12-01T10:05:26.868Z,24.30
2022-12-01T10:06:40.454Z,28.98
2022-12-01T10:08:08.445Z,25.95
2022-12-01T10:09:47.736Z,24.50
2022-12-01T10:10:50.838Z,53.30
2022-12-01T10:11:55.164Z,43.30
2022-12-01T10:12:56.736Z,40.92
2022-12-01T10:13:59.287Z,28.58
2022-12-01T10:15:06.053Z,28.08
2022-12-01T10:16:11.019Z,25.92
2022-12-01T10:17:30.751Z,23.30
2022-12-01T10:18:50.630Z,25.02
2022-12-01T10:20:09.309Z,25.10
2022-12-01T10:21:24.439Z,20.50
2022-12-01T10:22:44.185Z,28.40
2022-12-01T10:23:52.652Z,29.98
2022-12-01T10:25:15.352Z,22.10
2022-12-01T10:26:26.838Z,19.58
2022-12-01T10:27:55.446Z,19.35
2022-12-01T10:29:01.064Z,19.15
2022-12-01T10:30:07.043Z,17.20
2022-12-01T10:31:21.284Z,19.73
2022-12-01T10:32:39.956Z,19.27
2022-12-01T10:34:22.471Z,17.95
2022-12-01T10:35:25.684Z,19.23
2022-12-01T10:36:27.831Z,19.85
2022-12-01T10:37:29.979Z,20.83
2022-12-01T10:38:35.587Z,19.17
2022-12-01T10:39:39.195Z,17.35
2022-12-01T10:40:41.177Z,17.85
2022-12-01T10:41:42.791Z,19.00
2022-12-01T10:42:46.100Z,20.15
2022-12-01T10:43:49.416Z,18.45
2022-12-01T10:44:51.123Z,18.65
2022-12-01T10:45:52.917Z,18.73
2022-12-01T10:46:55.722Z,18.08
2022-12-01T10:48:16.999Z,18.17
2022-12-01T10:49:18.825Z,19.95
2022-12-01T10:50:27.738Z,20.42
2022-12-01T10:51:29.743Z,18.75
2022-12-01T10:52:37.566Z,18.87
2022-12-01T10:53:39.125Z,19.63
2022-12-01T10:54:41.045Z,20.10
2022-12-01T10:55:47.789Z,16.50
2022-12-01T10:56:50.955Z,21.73
2022-12-01T10:57:53.901Z,19.60
2022-12-01T10:58:58.050Z,17.83
2022-12-01T11:00:06.092Z,20.27
2022-12-01T11:01:07.783Z,17.42
2022-12-01T11:02:17.514Z,19.67
2022-12-01T11:03:22.089Z,20.57
2022-12-01T11:04:35.671Z,20.90
2022-12-01T11:05:39.688Z,20.42
2022-12-01T11:06:41.299Z,18.27
2022-12-01T11:07:44.277Z,21.38
2022-12-01T11:08:50.611Z,19.38
2022-12-01T11:10:16.732Z,20.85
2022-12-01T11:11:33.409Z,18.65
2022-12-01T11:12:35.041Z,20.35
2022-12-01T11:13:36.612Z,19.00
2022-12-01T11:14:51.012Z,20.13
2022-12-01T11:15:59.801Z,18.05
2022-12-01T11:17:49.853Z,17.08
2022-12-01T11:18:51.478Z,16.30
2022-12-01T11:19:53.517Z,16.85
2022-12-01T11:21:14.987Z,13.90
2022-12-01T11:22:34.477Z,16.98
2022-12-01T11:23:37.862Z,19.35
2022-12-01T11:24:44.199Z,14.10
2022-12-01T11:26:23.880Z,16.42
2022-12-01T11:27:27.075Z,14.67
2022-12-01T11:28:28.684Z,16.05
2022-12-01T11:29:36.235Z,19.30
2022-12-01T11:30:37.794Z,20.52
2022-12-01T11:31:46.798Z,19.90
2022-12-01T11:33:02.510Z,15.80
2022-12-01T11:34:04.202Z,16.67
2022-12-01T11:35:22.355Z,15.60
2022-12-01T11:36:44.152Z,15.10
2022-12-01T11:38:13.302Z,14.27
2022-12-01T11:39:22.593Z,15.47
2022-12-01T11:40:29.188Z,17.02
2022-12-01T11:41:39.205Z,16.35
2022-12-01T11:42:41.404Z,17.02
2022-12-01T11:43:46.739Z,17.45
2022-12-01T11:44:55.405Z,19.15
2022-12-01T11:45:58.340Z,16.38
2022-12-01T11:47:23.057Z,18.52
2022-12-01T11:48:27.324Z,18.25
2022-12-01T11:49:29.383Z,18.80
2022-12-01T11:50:33.207Z,18.80
2022-12-01T11:51:38.023Z,21.80
2022-12-01T11:52:46.563Z,18.38
2022-12-01T11:53:48.184Z,17.08
2022-12-01T11:54:57.521Z,18.73
2022-12-01T11:56:18.402Z,15.77
2022-12-01T11:57:33.659Z,16.48
2022-12-01T11:58:36.021Z,16.88
2022-12-01T11:59:37.662Z,17.38
2022-12-01T12:00:54.583Z,16.70
2022-12-01T12:02:02.122Z,15.90
2022-12-01T12:03:35.181Z,17.95
2022-12-01T12:04:42.263Z,14.32
2022-12-01T12:05:49.875Z,21.60
2022-12-01T12:06:55.745Z,17.52
2022-12-01T12:08:21.138Z,15.80
2022-12-01T12:09:45.069Z,16.25
2022-12-01T12:11:11.295Z,20.83
2022-12-01T12:12:21.879Z,15.88
2022-12-01T12:13:49.884Z,17.92
2022-12-01T12:15:10.188Z,16.83
2022-12-01T12:16:38.190Z,14.07
2022-12-01T12:18:00.038Z,18.65
2022-12-01T12:19:20.411Z,16.85
2022-12-01T12:20:56.110Z,15.77
2022-12-01T12:22:15.943Z,15.18
2022-12-01T12:23:41.600Z,15.98
2022-12-01T12:24:58.471Z,13.52
2022-12-01T12:26:00.038Z,13.88
2022-12-01T12:27:23.921Z,16.63
2022-12-01T12:28:50.021Z,14.40
2022-12-01T12:29:57.827Z,15.88
2022-12-01T12:31:08.247Z,15.95
2022-12-01T12:32:34.341Z,15.18
2022-12-01T12:34:13.477Z,14.23
2022-12-01T12:35:38.032Z,15.43
2022-12-01T12:36:59.284Z,20.23
2022-12-01T12:38:37.950Z,17.55
2022-12-01T12:40:18.452Z,15.48
2022-12-01T12:41:46.688Z,16.33
2022-12-01T12:43:00.478Z,23.93
2022-12-01T12:44:40.107Z,15.98
2022-12-01T12:45:53.864Z,16.73
2022-12-01T12:47:16.739Z,17.90
2022-12-01T12:48:22.772Z,35.15
2022-12-01T12:49:44.966Z,30.85
2022-12-01T12:50:58.775Z,23.63
2022-12-01T12:52:13.703Z,23.60
2022-12-01T12:53:22.319Z,23.60
2022-12-01T12:54:31.781Z,17.70
2022-12-01T12:55:44.668Z,17.13
2022-12-01T12:56:47.545Z,35.03
2022-12-01T12:57:54.151Z,19.90
2022-12-01T12:59:00.784Z,16.35
2022-12-01T13:00:29.017Z,15.75
2022-12-01T13:01:42.142Z,17.08
2022-12-01T13:02:47.796Z,16.65
2022-12-01T13:03:56.957Z,17.00
2022-12-01T13:05:02.953Z,17.10
2022-12-01T13:06:14.824Z,18.83
2022-12-01T13:07:16.337Z,17.87
2022-12-01T13:08:29.529Z,15.88
2022-12-01T13:09:42.413Z,16.45
2022-12-01T13:10:50.274Z,16.85
2022-12-01T13:11:57.484Z,15.00
2022-12-01T13:13:11.823Z,15.73
2022-12-01T13:14:26.668Z,26.08
2022-12-01T13:15:28.212Z,21.33
2022-12-01T13:16:44.244Z,20.50
2022-12-01T13:17:51.634Z,24.55
2022-12-01T13:18:56.161Z,15.70
2022-12-01T13:19:57.774Z,15.45
2022-12-01T13:20:59.959Z,16.38
2022-12-01T13:22:01.579Z,16.48
2022-12-01T13:23:03.308Z,19.33
2022-12-01T13:24:05.337Z,15.63
2022-12-01T13:25:07.750Z,15.18
2022-12-01T13:26:09.405Z,17.08
2022-12-01T13:27:10.957Z,13.43
2022-12-01T13:28:19.119Z,15.25
2022-12-01T13:29:23.786Z,20.00
2022-12-01T13:30:25.834Z,15.23
2022-12-01T13:31:27.469Z,19.27
2022-12-01T13:32:36.650Z,15.23
2022-12-01T13:33:39.708Z,18.20
2022-12-01T13:34:41.748Z,20.63
2022-12-01T13:35:43.299Z,19.58
2022-12-01T13:36:51.806Z,15.75
2022-12-01T13:37:53.896Z,18.33
2022-12-01T13:39:00.487Z,18.27
2022-12-01T13:40:25.212Z,14.93
2022-12-01T13:41:28.606Z,15.93
2022-12-01T13:42:32.144Z,18.08
2022-12-01T13:43:33.781Z,19.27
2022-12-01T13:44:43.240Z,16.20
2022-12-01T13:45:45.050Z,16.45
2022-12-01T13:46:46.648Z,15.30
2022-12-01T13:47:50.956Z,19.33
2022-12-01T13:48:54.917Z,16.02
2022-12-01T13:49:58.396Z,15.85
2022-12-01T13:51:01.434Z,17.70
2022-12-01T13:52:21.297Z,18.48
2022-12-01T13:53:23.018Z,19.23
2022-12-01T13:54:28.868Z,24.30
2022-12-01T13:55:30.574Z,18.08
2022-12-01T13:56:58.920Z,17.17
2022-12-01T13:58:00.425Z,20.35
2022-12-01T13:59:02.091Z,18.20
2022-12-01T14:00:27.535Z,15.90
2022-12-01T14:01:31.633Z,24.42
2022-12-01T14:02:34.713Z,22.67
2022-12-01T14:03:39.944Z,17.63
2022-12-01T14:04:41.674Z,19.23
2022-12-01T14:05:53.219Z,19.52
2022-12-01T14:07:28.644Z,16.42
2022-12-01T14:08:50.536Z,17.17
2022-12-01T14:09:54.345Z,20.10
2022-12-01T14:10:58.988Z,16.80
2022-12-01T14:12:02.038Z,17.17